createdAt,value
2022-11-12T00:02:30.267Z,9.75
2022-11-12T00:05:16.720Z,8.65
2022-11-12T00:08:03.195Z,9.27
2022-11-12T00:10:49.916Z,11.00
2022-11-12T00:13:36.274Z,7.40
2022-11-12T00:16:22.586Z,11.68
2022-11-12T00:19:09.019Z,12.70
2022-11-12T00:21:55.500Z,11.52
2022-11-12T00:24:42.069Z,5.00
2022-11-12T00:27:28.779Z,9.15
2022-11-12T00:30:15.683Z,8.88
2022-11-12T00:33:03.391Z,8.95
2022-11-12T00:35:50.138Z,6.78
2022-11-12T00:38:36.484Z,10.52
2022-11-12T00:41:22.825Z,8.13
2022-11-12T00:44:09.188Z,12.35
2022-11-12T00:46:56.128Z,12.65
2022-11-12T00:49:42.455Z,8.48
2022-11-12T00:52:29.022Z,15.38
2022-11-12T00:55:15.324Z,11.70
2022-11-12T00:58:01.830Z,10.63
2022-11-12T01:00:48.243Z,13.27
2022-11-12T01:03:35.150Z,8.90
2022-11-12T01:06:23.744Z,11.80
2022-11-12T01:09:10.649Z,11.00
2022-11-12T01:11:57.066Z,12.98
2022-11-12T01:14:43.357Z,7.60
2022-11-12T01:17:29.717Z,14.60
2022-11-12T01:20:16.223Z,9.93
2022-11-12T01:23:02.340Z,6.95
2022-11-12T01:25:48.467Z,10.68
2022-11-12T01:28:35.602Z,10.63
2022-11-12T01:31:34.342Z,9.50
2022-11-12T01:34:20.921Z,13.13
2022-11-12T01:37:07.147Z,12.32
2022-11-12T01:39:53.626Z,9.10
2022-11-12T01:42:40.231Z,8.27
2022-11-12T01:45:26.925Z,15.52
2022-11-12T01:48:30.391Z,10.18
2022-11-12T01:51:17.616Z,11.35
2022-11-12T01:54:08.555Z,14.00
2022-11-12T01:56:58.345Z,14.55
2022-11-12T01:59:48.582Z,9.52
2022-11-12T02:02:37.144Z,12.73
2022-11-12T02:05:25.447Z,11.00
2022-11-12T02:08:13.926Z,15.40
2022-11-12T02:11:10.800Z,13.10
2022-11-12T02:13:58.228Z,14.05
2022-11-12T02:16:46.603Z,22.73
2022-11-12T02:19:37.071Z,16.02
2022-11-12T02:22:23.715Z,14.65
2022-11-12T02:25:21.221Z,18.58
2022-11-12T02:28:09.374Z,11.85
2022-11-12T02:30:55.988Z,12.20
2022-11-12T02:33:42.458Z,15.57
2022-11-12T02:36:29.479Z,14.15
2022-11-12T02:39:15.849Z,10.98
2022-11-12T02:42:02.781Z,14.05
2022-11-12T02:44:49.340Z,14.88
2022-11-12T02:47:36.123Z,15.15
2022-11-12T02:50:22.403Z,15.02
2022-11-12T02:53:08.636Z,15.27
2022-11-12T02:55:54.975Z,16.00
2022-11-12T02:58:41.310Z,18.13
2022-11-12T03:01:27.995Z,14.50
2022-11-12T03:04:14.237Z,12.85
2022-11-12T03:07:00.606Z,15.05
2022-11-12T03:09:46.740Z,11.15
2022-11-12T03:12:33.783Z,14.88
2022-11-12T03:15:20.312Z,11.60
2022-11-12T03:18:06.830Z,14.68
2022-11-12T03:20:53.563Z,13.80
2022-11-12T03:23:40.388Z,12.63
2022-11-12T03:26:27.936Z,18.30
2022-11-12T03:29:17.173Z,21.02
2022-11-12T03:32:03.900Z,23.38
2022-11-12T03:34:54.363Z,20.17
2022-11-12T03:37:41.835Z,18.25
2022-11-12T03:40:28.866Z,23.95
2022-11-12T03:43:15.671Z,16.92
2022-11-12T03:46:02.301Z,19.75
2022-11-12T03:48:48.647Z,17.83
2022-11-12T03:51:35.208Z,16.45
2022-11-12T03:54:21.377Z,19.92
2022-11-12T03:57:07.547Z,20.90
2022-11-12T03:59:54.003Z,23.88
2022-11-12T04:02:40.390Z,17.35
2022-11-12T04:05:46.137Z,21.85
2022-11-12T04:08:39.044Z,19.73
2022-11-12T04:11:25.606Z,20.38
2022-11-12T04:14:11.641Z,21.23
2022-11-12T04:17:16.079Z,17.75
2022-11-12T04:20:20.808Z,18.15
2022-11-12T04:23:07.552Z,15.95
2022-11-12T04:26:12.603Z,16.63
2022-11-12T04:29:17.485Z,11.40
2022-11-12T04:32:04.128Z,13.43
2022-11-12T04:34:50.833Z,13.25
2022-11-12T04:37:47.100Z,14.25
2022-11-12T04:40:52.369Z,11.05
2022-11-12T04:43:57.576Z,14.48
2022-11-12T04:46:43.881Z,7.32
2022-11-12T04:49:30.110Z,10.63
2022-11-12T04:52:17.164Z,8.90
2022-11-12T04:55:04.357Z,10.35
2022-11-12T04:57:53.664Z,8.13
2022-11-12T05:00:42.621Z,7.95
2022-11-12T05:03:29.070Z,11.38
2022-11-12T05:06:34.130Z,7.18
2022-11-12T05:09:23.142Z,12.63
2022-11-12T05:12:09.785Z,8.45
2022-11-12T05:14:56.183Z,7.68
2022-11-12T05:17:46.143Z,7.00
2022-11-12T05:20:32.897Z,7.53
2022-11-12T05:23:19.655Z,11.57
2022-11-12T05:26:06.035Z,7.88
2022-11-12T05:28:52.426Z,11.70
2022-11-12T05:31:38.859Z,10.18
2022-11-12T05:34:25.217Z,8.93
2022-11-12T05:37:13.433Z,15.13
2022-11-12T05:39:59.809Z,10.20
2022-11-12T05:42:46.267Z,12.40
2022-11-12T05:45:32.620Z,7.25
2022-11-12T05:48:23.966Z,12.15
2022-11-12T05:51:13.407Z,10.50
2022-11-12T05:54:02.441Z,7.72
2022-11-12T05:56:48.845Z,10.35
2022-11-12T05:59:35.077Z,6.43
2022-11-12T06:02:21.742Z,13.27
2022-11-12T06:05:08.895Z,10.02
2022-11-12T06:07:55.687Z,12.57
2022-11-12T06:10:42.071Z,11.02
2022-11-12T06:13:28.724Z,11.07
2022-11-12T06:16:15.222Z,10.18
2022-11-12T06:19:02.074Z,8.52
2022-11-12T06:21:48.348Z,11.18
2022-11-12T06:24:35.472Z,12.40
2022-11-12T06:27:22.150Z,8.50
2022-11-12T06:30:10.022Z,10.93
2022-11-12T06:32:56.291Z,10.10
2022-11-12T06:35:43.264Z,7.90
2022-11-12T06:38:35.595Z,9.43
2022-11-12T06:41:22.131Z,12.32
2022-11-12T06:44:08.412Z,10.70
2022-11-12T06:46:55.156Z,11.70
2022-11-12T06:49:41.779Z,6.13
2022-11-12T06:52:27.936Z,10.63
2022-11-12T06:55:14.618Z,8.48
2022-11-12T06:58:01.214Z,8.23
2022-11-12T07:00:47.874Z,8.93
2022-11-12T07:03:34.546Z,13.25
2022-11-12T07:06:21.468Z,11.95
2022-11-12T07:09:08.201Z,9.82
2022-11-12T07:11:54.877Z,9.95
2022-11-12T07:14:41.137Z,6.43
2022-11-12T07:17:27.227Z,9.63
2022-11-12T07:20:14.064Z,7.22
2022-11-12T07:23:03.446Z,8.00
2022-11-12T07:25:57.478Z,8.75
2022-11-12T07:28:45.167Z,9.07
2022-11-12T07:31:32.209Z,8.75
2022-11-12T07:34:18.642Z,9.10
2022-11-12T07:37:04.849Z,5.93
2022-11-12T07:39:51.048Z,11.02
2022-11-12T07:42:37.358Z,14.93
2022-11-12T07:45:23.818Z,9.50
2022-11-12T07:48:10.602Z,9.18
2022-11-12T07:51:27.810Z,9.35
2022-11-12T07:54:18.223Z,10.57
2022-11-12T07:57:05.039Z,9.15
2022-11-12T07:59:51.110Z,11.10
2022-11-12T08:02:37.574Z,23.45
2022-11-12T08:05:23.986Z,18.85
2022-11-12T08:08:11.370Z,9.45
2022-11-12T08:10:59.003Z,19.15
2022-11-12T08:13:45.137Z,12.35
2022-11-12T08:16:31.791Z,13.80
2022-11-12T08:19:17.948Z,11.90
2022-11-12T08:22:04.446Z,11.20
2022-11-12T08:24:50.852Z,14.93
2022-11-12T08:27:37.357Z,17.75
2022-11-12T08:30:23.323Z,18.30
2022-11-12T08:33:09.944Z,12.88
2022-11-12T08:35:56.854Z,12.15
2022-11-12T08:38:43.541Z,14.48
2022-11-12T08:41:29.930Z,12.73
2022-11-12T08:44:16.195Z,9.30
2022-11-12T08:47:02.941Z,11.40
2022-11-12T08:49:49.173Z,12.65
2022-11-12T08:52:35.880Z,14.18
2022-11-12T08:55:22.037Z,14.18
2022-11-12T08:58:10.676Z,13.20
2022-11-12T09:00:57.465Z,11.23
2022-11-12T09:03:43.559Z,13.43
2022-11-12T09:06:29.736Z,14.45
2022-11-12T09:09:15.990Z,11.85
2022-11-12T09:12:07.564Z,11.27
2022-11-12T09:15:09.576Z,12.07
2022-11-12T09:18:06.098Z,11.90
2022-11-12T09:20:52.095Z,10.82
2022-11-12T09:23:38.511Z,13.55
2022-11-12T09:26:24.680Z,12.90
2022-11-12T09:29:10.922Z,12.32
2022-11-12T09:31:57.198Z,8.40
2022-11-12T09:34:45.218Z,12.52
2022-11-12T09:37:31.625Z,10.35
2022-11-12T09:40:20.198Z,7.90
2022-11-12T09:43:18.453Z,12.40
2022-11-12T09:46:27.279Z,12.60
2022-11-12T09:49:24.483Z,5.63
2022-11-12T09:52:23.681Z,12.55
2022-11-12T09:55:15.751Z,12.25
2022-11-12T09:58:02.065Z,10.80
2022-11-12T10:01:03.286Z,12.82
2022-11-12T10:04:24.943Z,10.05
2022-11-12T10:07:43.228Z,10.70
2022-11-12T10:10:38.881Z,14.25
2022-11-12T10:13:31.085Z,8.20
2022-11-12T10:16:47.345Z,7.68
2022-11-12T10:19:51.656Z,8.50
2022-11-12T10:23:03.262Z,8.68
2022-11-12T10:25:52.219Z,9.35
2022-11-12T10:28:47.268Z,12.20
2022-11-12T10:34:24.670Z,9.05
2022-11-12T10:37:29.271Z,6.05
2022-11-12T10:40:21.477Z,9.38
2022-11-12T10:43:26.068Z,7.38
2022-11-12T10:46:24.939Z,10.60
2022-11-12T10:49:14.432Z,10.18
2022-11-12T10:52:01.157Z,10.35
2022-11-12T10:54:52.364Z,8.15
2022-11-12T10:57:40.961Z,9.80
2022-11-12T11:00:27.798Z,5.97
2022-11-12T11:03:22.547Z,10.90
2022-11-12T11:06:14.611Z,7.35
2022-11-12T11:09:13.166Z,6.10
2022-11-12T11:11:59.926Z,7.85
2022-11-12T11:14:46.359Z,13.13
2022-11-12T11:17:32.636Z,7.20
2022-11-12T11:20:22.250Z,6.47
2022-11-12T11:23:22.566Z,6.35
2022-11-12T11:26:17.537Z,8.25
2022-11-12T11:29:39.035Z,5.57
2022-11-12T11:32:30.991Z,6.90
2022-11-12T11:35:37.526Z,5.93
2022-11-12T11:38:39.829Z,5.32
2022-11-12T11:41:45.673Z,5.57
2022-11-12T11:44:56.645Z,10.02
2022-11-12T11:48:08.832Z,5.65
2022-11-12T11:51:23.474Z,6.05
2022-11-12T11:54:30.645Z,6.90
2022-11-12T11:57:22.957Z,6.00
2022-11-12T12:00:19.619Z,7.43
2022-11-12T12:03:22.607Z,2.70
2022-11-12T12:06:30.860Z,6.68
2022-11-12T12:09:47.598Z,5.72
2022-11-12T12:12:54.366Z,2.55
2022-11-12T12:16:11.776Z,5.32
2022-11-12T12:19:34.999Z,6.50
2022-11-12T12:22:29.225Z,5.75
2022-11-12T12:25:27.335Z,7.18
2022-11-12T12:28:18.004Z,6.07
2022-11-12T12:31:17.612Z,5.93
2022-11-12T12:34:12.930Z,7.03
2022-11-12T12:37:14.223Z,6.82
2022-11-12T12:40:23.896Z,5.68
2022-11-12T12:43:35.532Z,5.20
2022-11-12T12:46:25.475Z,6.65
2022-11-12T12:49:19.227Z,6.22
2022-11-12T12:52:05.690Z,4.95
2022-11-12T12:54:52.131Z,5.10
2022-11-12T12:57:40.285Z,4.18
2022-11-12T13:00:37.298Z,4.32
2022-11-12T13:03:45.384Z,3.95
2022-11-12T13:06:46.741Z,3.22
2022-11-12T13:09:33.542Z,4.75
2022-11-12T13:12:20.082Z,4.82
2022-11-12T13:15:16.011Z,5.47
2022-11-12T13:18:02.616Z,3.00
2022-11-12T13:21:28.352Z,2.83
2022-11-12T13:24:14.986Z,3.35
2022-11-12T13:27:02.229Z,2.35
2022-11-12T13:29:48.781Z,2.70
2022-11-12T13:32:47.405Z,5.05
2022-11-12T13:35:39.744Z,3.17
2022-11-12T13:38:26.787Z,6.75
2022-11-12T13:41:40.477Z,3.92
2022-11-12T13:44:28.240Z,3.03
2022-11-12T13:47:22.434Z,1.80
2022-11-12T13:50:17.337Z,2.30
2022-11-12T13:53:09.538Z,3.78
2022-11-12T13:55:56.736Z,4.30
2022-11-12T13:58:44.382Z,5.13
2022-11-12T14:01:34.532Z,4.13
2022-11-12T14:04:24.363Z,6.30
2022-11-12T14:07:39.353Z,2.67
2022-11-12T14:10:50.429Z,3.65
2022-11-12T14:13:55.316Z,4.13
2022-11-12T14:16:56.535Z,2.95
2022-11-12T14:20:08.998Z,6.22
2022-11-12T14:22:55.528Z,6.55
2022-11-12T14:25:53.478Z,2.30
2022-11-12T14:28:43.575Z,5.88
2022-11-12T14:31:30.094Z,2.50
2022-11-12T14:34:21.121Z,3.92
2022-11-12T14:37:38.432Z,3.70
2022-11-12T14:40:31.615Z,2.45
2022-11-12T14:43:27.882Z,5.18
2022-11-12T14:46:28.312Z,3.83
2022-11-12T14:49:34.502Z,4.13
2022-11-12T14:52:31.631Z,1.73
2022-11-12T14:55:36.363Z,3.95
2022-11-12T14:58:24.326Z,5.03
2022-11-12T15:04:38.067Z,4.53
2022-11-12T15:07:35.627Z,6.35
2022-11-12T15:10:33.018Z,2.83
2022-11-12T15:13:25.312Z,3.00
2022-11-12T15:16:18.499Z,3.50
2022-11-12T15:19:16.242Z,3.28
2022-11-12T15:22:04.197Z,2.58
2022-11-12T15:24:50.818Z,3.85
2022-11-12T15:27:43.866Z,4.35
2022-11-12T15:30:32.662Z,4.05
2022-11-12T15:33:23.253Z,6.30
2022-11-12T15:36:22.252Z,3.13
2022-11-12T15:39:13.911Z,3.75
2022-11-12T15:42:06.905Z,4.45
2022-11-12T15:45:00.638Z,5.32
2022-11-12T15:47:47.934Z,3.78
2022-11-12T15:50:34.201Z,5.97
2022-11-12T15:53:20.359Z,3.45
2022-11-12T15:56:13.089Z,4.70
2022-11-12T15:58:59.606Z,4.05
2022-11-12T16:01:46.222Z,6.97
2022-11-12T16:04:32.547Z,4.18
2022-11-12T16:07:19.094Z,5.05
2022-11-12T16:10:05.894Z,5.30
2022-11-12T16:12:55.921Z,5.68
2022-11-12T16:15:42.649Z,3.38
2022-11-12T16:18:28.934Z,7.70
2022-11-12T16:21:20.498Z,6.53
2022-11-12T16:24:07.698Z,4.25
2022-11-12T16:26:54.363Z,6.32
2022-11-12T16:29:41.532Z,4.47
2022-11-12T16:32:27.826Z,5.10
2022-11-12T16:35:14.380Z,6.30
2022-11-12T16:38:00.838Z,3.60
2022-11-12T16:40:47.405Z,6.07
2022-11-12T16:43:33.635Z,6.20
2022-11-12T16:46:30.914Z,6.53
2022-11-12T16:49:17.390Z,6.93
2022-11-12T16:52:03.942Z,4.70
2022-11-12T16:54:53.169Z,6.57
2022-11-12T16:57:40.720Z,5.45
2022-11-12T17:00:28.382Z,4.63
2022-11-12T17:03:15.073Z,8.45
2022-11-12T17:06:01.800Z,5.05
2022-11-12T17:08:48.556Z,5.22
2022-11-12T17:11:35.969Z,6.25
2022-11-12T17:14:27.107Z,6.72
2022-11-12T17:17:14.566Z,8.57
2022-11-12T17:20:00.936Z,4.95
2022-11-12T17:22:47.215Z,8.73
2022-11-12T17:25:33.789Z,7.78
2022-11-12T17:28:20.856Z,5.72
2022-11-12T17:31:08.789Z,5.25
2022-11-12T17:33:55.504Z,7.05
2022-11-12T17:36:43.747Z,8.13
2022-11-12T17:39:30.228Z,5.22
2022-11-12T17:42:16.402Z,7.05
2022-11-12T17:45:02.651Z,9.65
2022-11-12T17:47:48.872Z,7.30
2022-11-12T17:50:35.639Z,6.07
2022-11-12T17:53:22.139Z,8.23
2022-11-12T17:56:10.374Z,8.02
2022-11-12T17:58:57.125Z,8.27
2022-11-12T18:01:43.810Z,8.20
2022-11-12T18:04:31.132Z,5.05
2022-11-12T18:07:18.356Z,8.93
2022-11-12T18:10:05.123Z,7.13
2022-11-12T18:12:53.043Z,9.35
2022-11-12T18:15:39.417Z,7.07
2022-11-12T18:18:25.827Z,7.72
2022-11-12T18:21:12.292Z,11.43
2022-11-12T18:23:58.566Z,6.15
2022-11-12T18:26:44.913Z,10.75
2022-11-12T18:29:31.285Z,10.57
2022-11-12T18:32:17.753Z,18.88
2022-11-12T18:35:04.433Z,11.88
2022-11-12T18:37:50.762Z,11.13
2022-11-12T18:40:37.086Z,15.30
2022-11-12T18:43:23.295Z,14.27
2022-11-12T18:46:11.389Z,13.48
2022-11-12T18:49:04.178Z,12.32
2022-11-12T18:52:05.295Z,11.80
2022-11-12T18:54:51.524Z,9.95
2022-11-12T18:57:37.629Z,13.82
2022-11-12T19:00:24.482Z,11.65
2022-11-12T19:03:10.777Z,10.82
2022-11-12T19:06:01.291Z,13.23
2022-11-12T19:08:47.883Z,10.40
2022-11-12T19:11:34.510Z,12.38
2022-11-12T19:14:20.738Z,10.80
2022-11-12T19:17:07.370Z,17.50
2022-11-12T19:19:54.000Z,14.63
2022-11-12T19:22:40.503Z,13.93
2022-11-12T19:25:27.603Z,12.93
2022-11-12T19:28:14.299Z,11.20
2022-11-12T19:31:04.628Z,11.10
2022-11-12T19:33:51.566Z,11.30
2022-11-12T19:36:38.327Z,13.02
2022-11-12T19:39:25.015Z,12.23
2022-11-12T19:42:11.493Z,13.02
2022-11-12T19:44:57.891Z,11.85
2022-11-12T19:47:44.613Z,14.88
2022-11-12T19:50:32.789Z,12.30
2022-11-12T19:53:19.663Z,10.70
2022-11-12T19:56:07.792Z,15.20
2022-11-12T19:58:55.392Z,19.25
2022-11-12T20:01:42.052Z,16.42
2022-11-12T20:04:28.457Z,21.00
2022-11-12T20:07:14.804Z,21.52
2022-11-12T20:10:01.707Z,17.67
2022-11-12T20:12:48.337Z,17.90
2022-11-12T20:15:34.702Z,17.48
2022-11-12T20:18:20.944Z,20.23
2022-11-12T20:21:09.429Z,26.95
2022-11-12T20:23:56.078Z,34.35
2022-11-12T20:26:42.559Z,20.95
2022-11-12T20:29:29.054Z,21.30
2022-11-12T20:32:15.383Z,22.17
2022-11-12T20:35:02.024Z,19.67
2022-11-12T20:37:50.436Z,20.95
2022-11-12T20:40:37.537Z,16.52
2022-11-12T20:43:29.040Z,19.80
2022-11-12T20:46:15.875Z,18.70
2022-11-12T20:49:02.348Z,19.50
2022-11-12T20:51:48.908Z,15.85
2022-11-12T20:54:35.258Z,18.67
2022-11-12T20:57:21.645Z,15.05
2022-11-12T21:00:13.588Z,18.73
2022-11-12T21:03:01.154Z,20.58
2022-11-12T21:05:47.673Z,16.77
2022-11-12T21:08:37.105Z,16.40
2022-11-12T21:11:26.229Z,13.88
2022-11-12T21:14:14.776Z,13.25
2022-11-12T21:17:01.476Z,14.27
2022-11-12T21:19:47.971Z,13.52
2022-11-12T21:22:34.389Z,16.10
2022-11-12T21:25:20.702Z,14.80
2022-11-12T21:28:08.796Z,16.30
2022-11-12T21:31:01.479Z,15.13
2022-11-12T21:33:56.116Z,14.75
2022-11-12T21:36:42.645Z,15.17
2022-11-12T21:39:29.485Z,13.52
2022-11-12T21:42:16.097Z,15.32
2022-11-12T21:45:02.517Z,15.02
2022-11-12T21:47:48.897Z,16.20
2022-11-12T21:50:35.501Z,19.65
2022-11-12T21:53:22.304Z,21.80
2022-11-12T21:56:12.261Z,18.38
2022-11-12T21:59:00.721Z,18.33
2022-11-12T22:01:47.620Z,17.17
2022-11-12T22:04:33.987Z,16.30
2022-11-12T22:07:20.740Z,20.20
2022-11-12T22:10:08.420Z,18.05
2022-11-12T22:13:24.752Z,16.33
2022-11-12T22:16:09.814Z,20.25
2022-11-12T22:18:58.007Z,17.73
2022-11-12T22:21:44.441Z,17.08
2022-11-12T22:24:30.762Z,24.02
2022-11-12T22:27:17.322Z,18.13
2022-11-12T22:30:04.154Z,21.25
2022-11-12T22:32:50.237Z,18.75
2022-11-12T22:35:36.733Z,18.38
2022-11-12T22:38:23.147Z,21.08
2022-11-12T22:41:12.730Z,19.42
2022-11-12T22:44:01.341Z,16.00
2022-11-12T22:46:47.303Z,19.05
2022-11-12T22:49:33.580Z,24.45
2022-11-12T22:52:19.564Z,20.80
2022-11-12T22:55:06.184Z,23.60
2022-11-12T22:57:52.764Z,23.25
2022-11-12T23:00:39.542Z,24.10
2022-11-12T23:03:25.888Z,22.52
2022-11-12T23:06:12.608Z,23.25
2022-11-12T23:09:00.169Z,22.13
2022-11-12T23:11:46.087Z,23.50
2022-11-12T23:14:32.765Z,19.77
2022-11-12T23:17:19.026Z,26.92
2022-11-12T23:20:05.667Z,23.48
2022-11-12T23:22:52.275Z,20.38
2022-11-12T23:25:38.367Z,25.70
2022-11-12T23:28:25.152Z,26.73
2022-11-12T23:31:23.340Z,25.23
2022-11-12T23:34:09.874Z,23.48
2022-11-12T23:36:56.125Z,18.88
2022-11-12T23:39:42.215Z,21.40
2022-11-12T23:42:29.209Z,22.08
2022-11-12T23:45:15.671Z,21.38
2022-11-12T23:48:02.080Z,17.55
2022-11-12T23:50:50.789Z,21.83
2022-11-12T23:53:38.782Z,18.98
2022-11-12T23:56:25.572Z,20.08
2022-11-12T23:59:11.961Z,18.30
